Time;durP1;ratioP1;P1;durP2;ratioP2;P2;SDS_P1;SDS_P2;PMS_P1;PMS_P2;Temp;Humidity;BMP_temperature;BMP_pressure;BME280_temperature;BME280_humidity;BME280_pressure;Samples;Min_cycle;Max_cycle;Signal;HPM_P1;HPM_P2
2021/04/09 00:02:21;;;;;;;23.27;12.23;;;;;;;;;;4331712;33;20158;-70
2021/04/09 00:04:50;;;;;;;24.30;12.73;;;;;;;;;;4330176;33;20202;-70
2021/04/09 00:07:15;;;;;;;25.43;13.03;;;;;;;;;;4331181;33;20144;-71
2021/04/09 00:09:44;;;;;;;27.47;12.70;;;;;;;;;;4330669;33;20518;-71
2021/04/09 00:12:09;;;;;;;23.17;13.13;;;;;;;;;;4331522;33;20132;-70
2021/04/09 00:14:37;;;;;;;25.10;13.03;;;;;;;;;;4330041;33;20151;-70
2021/04/09 00:17:13;;;;;;;19.67;11.77;;;;;;;;;;4329901;33;20231;-70
2021/04/09 00:19:38;;;;;;;21.20;11.80;;;;;;;;;;4330841;33;20155;-70
2021/04/09 00:26:08;;;;;;;22.73;11.93;;;;;;;;;;4271217;33;20176;-70
2021/04/09 00:28:46;;;;;;;;;;;;;;;;;;;;;
2021/04/09 00:31:40;;;;;;;26.90;13.40;;;;;;;;;;4285613;33;20155;-70
2021/04/09 00:34:14;;;;;;;21.73;11.43;;;;;;;;;;4272228;33;20229;-71
2021/04/09 00:37:11;;;;;;;21.20;12.00;;;;;;;;;;4296021;33;20151;-70
2021/04/09 00:39:41;;;;;;;21.83;11.67;;;;;;;;;;4315772;33;20222;-70
2021/04/09 00:42:15;;;;;;;20.83;12.80;;;;;;;;;;4316370;33;20152;-70
2021/04/09 00:44:50;;;;;;;22.63;12.90;;;;;;;;;;4316695;33;20214;-71
2021/04/09 00:47:23;;;;;;;19.27;12.17;;;;;;;;;;4316724;33;20135;-70
2021/04/09 00:59:09;;;;;;;21.47;12.40;;;;;;;;;;4330846;33;20179;-71
2021/04/09 01:17:14;;;;;;;16.33;9.70;;;;;;;;;;4313994;33;20182;-70
2021/04/09 01:38:34;;;;;;;17.67;10.57;;;;;;;;;;4256475;33;20145;-70
2021/04/09 01:53:30;;;;;;;15.43;10.50;;;;;;;;;;4199996;34;20186;-70
2021/04/09 01:56:22;;;;;;;21.77;11.57;;;;;;;;;;4200379;34;20209;-70
2021/04/09 01:59:02;;;;;;;18.57;9.90;;;;;;;;;;4188470;34;20237;-70
2021/04/09 02:01:28;;;;;;;21.20;11.50;;;;;;;;;;4211980;34;20174;-70
2021/04/09 02:03:56;;;;;;;16.57;10.73;;;;;;;;;;4215196;34;20138;-71
2021/04/09 02:06:27;;;;;;;17.80;10.80;;;;;;;;;;4216903;34;20219;-70
2021/04/09 02:09:01;;;;;;;20.07;11.10;;;;;;;;;;4205315;34;20221;-71
2021/04/09 02:11:39;;;;;;;;;;;;;;;;;;;;;
2021/04/09 02:14:09;;;;;;;15.97;8.77;;;;;;;;;;4310336;33;20562;-70
2021/04/09 02:23:30;;;;;;;14.53;9.57;;;;;;;;;;4258352;33;20173;-70
2021/04/09 02:26:24;;;;;;;17.43;9.37;;;;;;;;;;4259327;33;20207;-70
2021/04/09 02:35:22;;;;;;;16.70;9.57;;;;;;;;;;4202470;34;20147;-70
2021/04/09 02:50:22;;;;;;;14.50;8.07;;;;;;;;;;4203056;34;20217;-71
2021/04/09 02:53:13;;;;;;;14.23;8.33;;;;;;;;;;4241588;33;20149;-71
2021/04/09 02:56:04;;;;;;;13.00;8.20;;;;;;;;;;4246218;33;20142;-71
2021/04/09 03:01:47;;;;;;;15.13;7.87;;;;;;;;;;4216467;34;20142;-71
2021/04/09 03:07:21;;;;;;;10.00;7.50;;;;;;;;;;4230276;34;20182;-71
2021/04/09 03:13:20;;;;;;;12.97;7.93;;;;;;;;;;4230268;34;20140;-70
2021/04/09 03:19:24;;;;;;;11.57;7.17;;;;;;;;;;4235874;33;20184;-70
2021/04/09 03:24:58;;;;;;;12.03;8.00;;;;;;;;;;4316166;33;20227;-70
2021/04/09 03:30:50;;;;;;;13.93;7.90;;;;;;;;;;4271682;33;20339;-70
2021/04/09 03:36:06;;;;;;;13.10;7.77;;;;;;;;;;4272007;33;20215;-71
2021/04/09 03:38:43;;;;;;;15.93;7.60;;;;;;;;;;4271230;33;20179;-70
2021/04/09 03:41:22;;;;;;;15.33;8.40;;;;;;;;;;4271897;33;20137;-71
2021/04/09 03:44:10;;;;;;;15.17;8.57;;;;;;;;;;4272056;33;20448;-71
2021/04/09 03:53:04;;;;;;;16.13;8.00;;;;;;;;;;4271765;33;20180;-71
2021/04/09 03:58:23;;;;;;;13.47;8.00;;;;;;;;;;4271626;33;20530;-71
2021/04/09 04:01:07;;;;;;;16.37;9.10;;;;;;;;;;4293283;33;20182;-71
2021/04/09 04:04:09;;;;;;;16.57;9.03;;;;;;;;;;4316721;33;20191;-70
2021/04/09 04:06:53;;;;;;;13.07;7.30;;;;;;;;;;4315397;33;20223;-71
2021/04/09 04:09:19;;;;;;;16.90;9.37;;;;;;;;;;4316599;33;20155;-71
2021/04/09 04:11:50;;;;;;;17.43;9.77;;;;;;;;;;4315783;33;20176;-71
2021/04/09 04:14:16;;;;;;;14.80;8.93;;;;;;;;;;4315989;33;20151;-71
2021/04/09 04:16:41;;;;;;;16.13;8.57;;;;;;;;;;4316764;33;20532;-71
2021/04/09 04:19:07;;;;;;;17.17;9.17;;;;;;;;;;4316989;33;20527;-71
2021/04/09 04:21:32;;;;;;;18.77;9.73;;;;;;;;;;4327746;33;20481;-70
2021/04/09 04:23:58;;;;;;;15.20;8.83;;;;;;;;;;4327407;33;20160;-70
2021/04/09 04:26:33;;;;;;;12.07;8.13;;;;;;;;;;4316388;33;20152;-71
2021/04/09 04:28:59;;;;;;;13.97;8.30;;;;;;;;;;4317189;33;20560;-71
2021/04/09 04:31:24;;;;;;;15.33;9.57;;;;;;;;;;4316997;33;20129;-71
2021/04/09 04:33:49;;;;;;;15.73;8.43;;;;;;;;;;4320286;33;20618;-70
2021/04/09 04:36:29;;;;;;;16.03;8.80;;;;;;;;;;4330700;33;20512;-70
2021/04/09 04:38:54;;;;;;;15.60;8.67;;;;;;;;;;4329845;33;20198;-70
2021/04/09 04:41:20;;;;;;;17.10;9.93;;;;;;;;;;4330774;33;20516;-70
2021/04/09 04:43:45;;;;;;;16.00;9.77;;;;;;;;;;4331145;33;20159;-69
2021/04/09 04:46:11;;;;;;;14.27;9.50;;;;;;;;;;4331043;33;20176;-71
2021/04/09 04:48:36;;;;;;;14.90;8.80;;;;;;;;;;4329471;33;20590;-70
2021/04/09 04:51:02;;;;;;;18.70;9.57;;;;;;;;;;4329941;33;20608;-72
2021/04/09 04:53:27;;;;;;;15.60;9.87;;;;;;;;;;4329444;33;20152;-72
2021/04/09 04:55:53;;;;;;;19.40;10.70;;;;;;;;;;4330562;33;20174;-71
2021/04/09 04:58:19;;;;;;;17.27;9.13;;;;;;;;;;4329691;33;20218;-70
2021/04/09 05:00:44;;;;;;;17.73;9.60;;;;;;;;;;4330602;33;20534;-70
2021/04/09 05:03:10;;;;;;;16.23;8.83;;;;;;;;;;4330462;33;20484;-72
2021/04/09 05:05:35;;;;;;;26.03;11.27;;;;;;;;;;4330461;33;20125;-70
2021/04/09 05:08:00;;;;;;;17.83;9.73;;;;;;;;;;4330525;33;20160;-71
2021/04/09 05:10:25;;;;;;;19.43;11.73;;;;;;;;;;4330950;33;20568;-71
2021/04/09 05:12:51;;;;;;;24.27;11.43;;;;;;;;;;4329381;33;20645;-72
2021/04/09 05:15:23;;;;;;;21.63;10.17;;;;;;;;;;4329616;33;20156;-70
2021/04/09 05:17:48;;;;;;;16.53;10.13;;;;;;;;;;4331320;33;20135;-70
2021/04/09 05:20:14;;;;;;;22.60;9.57;;;;;;;;;;4330564;33;20550;-70
2021/04/09 05:22:48;;;;;;;17.53;10.67;;;;;;;;;;4329084;33;20470;-72
2021/04/09 05:25:29;;;;;;;19.77;10.57;;;;;;;;;;4329273;33;20207;-72
2021/04/09 05:27:54;;;;;;;20.13;9.53;;;;;;;;;;4329493;33;20159;-70
2021/04/09 05:30:19;;;;;;;18.80;9.07;;;;;;;;;;4328592;33;20706;-70
2021/04/09 05:32:45;;;;;;;16.10;10.33;;;;;;;;;;4329198;33;20151;-72
2021/04/09 05:35:10;;;;;;;23.20;10.90;;;;;;;;;;4330786;33;20554;-73
2021/04/09 05:37:36;;;;;;;18.20;10.57;;;;;;;;;;4329979;33;20148;-71
2021/04/09 05:40:01;;;;;;;23.60;11.30;;;;;;;;;;4319506;33;20624;-70
2021/04/09 05:42:26;;;;;;;21.87;10.93;;;;;;;;;;4331610;33;20554;-71
2021/04/09 05:44:52;;;;;;;24.73;11.40;;;;;;;;;;4333878;33;20132;-71
2021/04/09 05:47:17;;;;;;;21.67;9.50;;;;;;;;;;4320301;33;20239;-72
2021/04/09 05:49:42;;;;;;;19.10;10.23;;;;;;;;;;4332947;33;20136;-71
2021/04/09 05:52:08;;;;;;;21.47;11.60;;;;;;;;;;4332919;33;20562;-71
2021/04/09 05:54:34;;;;;;;26.53;12.13;;;;;;;;;;4332806;33;20145;-72
2021/04/09 05:56:59;;;;;;;20.57;9.17;;;;;;;;;;4332596;33;20152;-71
2021/04/09 05:59:26;;;;;;;21.83;11.37;;;;;;;;;;4332917;33;20140;-70
2021/04/09 06:01:51;;;;;;;16.63;10.10;;;;;;;;;;4331671;33;20218;-71
2021/04/09 06:04:16;;;;;;;19.70;10.50;;;;;;;;;;4332646;33;20179;-70
2021/04/09 06:06:42;;;;;;;18.30;10.83;;;;;;;;;;4332883;33;20128;-72
2021/04/09 06:09:07;;;;;;;22.53;11.60;;;;;;;;;;4320323;33;20225;-74
2021/04/09 06:11:32;;;;;;;18.33;11.07;;;;;;;;;;4331927;33;20279;-71
2021/04/09 06:13:58;;;;;;;21.17;10.53;;;;;;;;;;4331103;33;20164;-71
2021/04/09 06:16:23;;;;;;;22.40;12.00;;;;;;;;;;4332495;33;20207;-68
2021/04/09 06:18:48;;;;;;;22.00;10.57;;;;;;;;;;4332137;33;20159;-71
2021/04/09 06:21:14;;;;;;;21.00;11.50;;;;;;;;;;4329549;33;20505;-72
2021/04/09 06:23:39;;;;;;;21.07;11.77;;;;;;;;;;4332238;33;20657;-72
2021/04/09 06:26:04;;;;;;;21.77;10.37;;;;;;;;;;4332249;33;20259;-72
2021/04/09 06:28:30;;;;;;;19.37;11.53;;;;;;;;;;4330352;33;20203;-71
2021/04/09 06:30:55;;;;;;;17.93;10.80;;;;;;;;;;4331033;33;20596;-71
2021/04/09 06:33:20;;;;;;;18.10;10.07;;;;;;;;;;4331726;33;20226;-71
2021/04/09 06:35:46;;;;;;;17.00;10.23;;;;;;;;;;4331348;33;20639;-71
2021/04/09 06:38:11;;;;;;;19.37;10.37;;;;;;;;;;4332553;33;20534;-71
2021/04/09 06:40:40;;;;;;;17.90;9.97;;;;;;;;;;4330914;33;20693;-71
2021/04/09 06:43:05;;;;;;;21.60;11.90;;;;;;;;;;4340221;33;20246;-70
2021/04/09 06:45:30;;;;;;;24.03;10.03;;;;;;;;;;4329916;33;20175;-70
2021/04/09 06:47:56;;;;;;;19.60;11.17;;;;;;;;;;4331182;33;20148;-71
2021/04/09 06:50:23;;;;;;;15.90;10.83;;;;;;;;;;4329145;33;20182;-71
2021/04/09 06:52:48;;;;;;;22.47;10.57;;;;;;;;;;4329686;33;20169;-71
2021/04/09 06:55:17;;;;;;;25.33;11.07;;;;;;;;;;4331431;33;20191;-70
2021/04/09 06:57:52;;;;;;;18.60;9.37;;;;;;;;;;4330017;33;20202;-70
2021/04/09 07:00:30;;;;;;;17.87;10.67;;;;;;;;;;4332391;33;20166;-71
2021/04/09 07:02:56;;;;;;;18.37;10.23;;;;;;;;;;4330612;33;20222;-71
2021/04/09 07:05:21;;;;;;;16.17;8.63;;;;;;;;;;4332608;33;20144;-70
2021/04/09 07:07:49;;;;;;;18.63;9.63;;;;;;;;;;4326750;33;20140;-70
2021/04/09 07:10:15;;;;;;;18.20;10.20;;;;;;;;;;4326040;33;20214;-71
2021/04/09 07:12:40;;;;;;;14.87;9.43;;;;;;;;;;4330060;33;20250;-71
2021/04/09 07:15:07;;;;;;;18.10;9.70;;;;;;;;;;4317484;33;20163;-71
2021/04/09 07:17:35;;;;;;;20.60;10.60;;;;;;;;;;4327293;33;20163;-72
2021/04/09 07:20:40;;;;;;;19.40;9.47;;;;;;;;;;4331455;33;20202;-72
2021/04/09 07:23:27;;;;;;;15.10;8.80;;;;;;;;;;4331507;33;20251;-71
2021/04/09 07:25:52;;;;;;;14.30;8.80;;;;;;;;;;4330892;33;20172;-71
2021/04/09 07:28:18;;;;;;;15.63;8.43;;;;;;;;;;4331040;33;20525;-71
2021/04/09 07:30:50;;;;;;;18.93;8.27;;;;;;;;;;4329539;33;20475;-72
2021/04/09 07:33:16;;;;;;;16.80;8.90;;;;;;;;;;4329924;33;20226;-71
2021/04/09 07:35:53;;;;;;;19.37;8.17;;;;;;;;;;4329473;33;20225;-73
2021/04/09 07:38:21;;;;;;;22.20;9.40;;;;;;;;;;4332813;33;20225;-70
2021/04/09 07:41:05;;;;;;;19.63;9.53;;;;;;;;;;4332230;33;20162;-72
2021/04/09 07:43:31;;;;;;;15.53;8.53;;;;;;;;;;4329420;33;20231;-72
2021/04/09 07:45:59;;;;;;;18.30;8.57;;;;;;;;;;4331441;33;20513;-71
2021/04/09 07:48:34;;;;;;;19.07;8.93;;;;;;;;;;4317583;33;20159;-72
2021/04/09 07:51:00;;;;;;;18.07;9.10;;;;;;;;;;4317627;33;20205;-70
2021/04/09 07:53:32;;;;;;;23.63;9.27;;;;;;;;;;4328160;33;20160;-72
2021/04/09 07:56:07;;;;;;;19.10;8.77;;;;;;;;;;4329437;33;20501;-73
2021/04/09 07:58:34;;;;;;;17.53;8.53;;;;;;;;;;4316543;33;20526;-71
2021/04/09 08:00:59;;;;;;;16.13;8.50;;;;;;;;;;4315459;33;20139;-73
2021/04/09 08:03:32;;;;;;;15.33;7.73;;;;;;;;;;4316413;33;20535;-71
2021/04/09 08:06:06;;;;;;;15.90;8.20;;;;;;;;;;4316280;33;20163;-72
2021/04/09 08:08:32;;;;;;;14.90;7.20;;;;;;;;;;4315654;33;20541;-72
2021/04/09 08:11:35;;;;;;;14.33;8.60;;;;;;;;;;4329331;33;20140;-68
2021/04/09 08:14:04;;;;;;;20.80;8.90;;;;;;;;;;4285081;33;20291;-72
2021/04/09 08:16:36;;;;;;;14.57;6.83;;;;;;;;;;4272450;33;20203;-70
2021/04/09 08:19:01;;;;;;;16.63;7.10;;;;;;;;;;4308974;33;20258;-71
2021/04/09 08:21:27;;;;;;;13.43;7.47;;;;;;;;;;4330913;33;20128;-72
2021/04/09 08:23:54;;;;;;;15.63;6.73;;;;;;;;;;4329574;33;20164;-72
2021/04/09 08:26:20;;;;;;;13.93;7.40;;;;;;;;;;4329150;33;20168;-70
2021/04/09 08:28:45;;;;;;;17.23;8.70;;;;;;;;;;4329137;33;20168;-71
2021/04/09 08:31:10;;;;;;;15.57;7.80;;;;;;;;;;4330068;33;20162;-71
2021/04/09 08:33:36;;;;;;;19.13;8.03;;;;;;;;;;4329039;33;20234;-72
2021/04/09 08:36:01;;;;;;;16.23;7.33;;;;;;;;;;4330060;33;20498;-72
2021/04/09 08:38:26;;;;;;;17.63;7.97;;;;;;;;;;4330162;33;20147;-71
2021/04/09 08:40:53;;;;;;;13.23;7.03;;;;;;;;;;4317891;33;20162;-71
2021/04/09 08:43:19;;;;;;;15.03;7.80;;;;;;;;;;4316083;33;20542;-71
2021/04/09 08:45:44;;;;;;;13.10;6.70;;;;;;;;;;4302305;33;20153;-71
2021/04/09 08:48:12;;;;;;;16.67;7.60;;;;;;;;;;4315610;33;20195;-73
2021/04/09 08:50:37;;;;;;;14.65;7.43;;;;;;;;;;4327217;33;20235;-71
2021/04/09 08:53:02;;;;;;;15.33;7.23;;;;;;;;;;4329066;33;20554;-72
2021/04/09 08:55:38;;;;;;;14.95;6.75;;;;;;;;;;4330152;33;20548;-71
2021/04/09 08:58:16;;;;;;;14.07;6.60;;;;;;;;;;4330033;33;20201;-69
2021/04/09 09:00:42;;;;;;;14.75;7.37;;;;;;;;;;4329839;33;20158;-73
2021/04/09 09:03:23;;;;;;;14.65;6.57;;;;;;;;;;4328334;33;20190;-72
2021/04/09 09:06:15;;;;;;;14.02;6.12;;;;;;;;;;4330021;33;20185;-73
2021/04/09 09:08:41;;;;;;;12.60;5.78;;;;;;;;;;4326948;33;20313;-73
2021/04/09 09:11:06;;;;;;;12.40;7.05;;;;;;;;;;4330004;33;20215;-72
2021/04/09 09:13:32;;;;;;;13.90;5.47;;;;;;;;;;4329631;33;20525;-71
2021/04/09 09:15:58;;;;;;;12.65;6.60;;;;;;;;;;4328444;33;20165;-71
2021/04/09 09:18:23;;;;;;;13.43;6.40;;;;;;;;;;4329410;33;20143;-72
2021/04/09 09:21:03;;;;;;;13.65;6.43;;;;;;;;;;4329964;33;20181;-72
2021/04/09 09:23:41;;;;;;;9.02;5.35;;;;;;;;;;4317724;33;20210;-71
2021/04/09 09:26:28;;;;;;;16.98;6.15;;;;;;;;;;4313583;33;20156;-73
2021/04/09 09:29:13;;;;;;;13.45;6.70;;;;;;;;;;4325379;33;20152;-71
2021/04/09 09:31:59;;;;;;;11.80;6.25;;;;;;;;;;4328949;33;20175;-72
2021/04/09 09:34:25;;;;;;;12.55;5.97;;;;;;;;;;4329366;33;20215;-71
2021/04/09 09:37:05;;;;;;;11.57;6.07;;;;;;;;;;4330140;33;20584;-74
2021/04/09 09:39:34;;;;;;;12.10;6.22;;;;;;;;;;4329537;33;20175;-72
2021/04/09 09:42:02;;;;;;;11.12;6.03;;;;;;;;;;4329375;33;20131;-71
2021/04/09 09:44:35;;;;;;;9.70;5.90;;;;;;;;;;4329948;33;20140;-71
2021/04/09 09:47:04;;;;;;;15.18;7.40;;;;;;;;;;4328179;33;20186;-70
2021/04/09 09:49:33;;;;;;;13.80;5.80;;;;;;;;;;4325994;33;20764;-72
2021/04/09 09:51:58;;;;;;;10.77;6.90;;;;;;;;;;4320756;33;20155;-72
2021/04/09 09:54:23;;;;;;;10.15;6.22;;;;;;;;;;4316012;33;20168;-71
2021/04/09 09:56:52;;;;;;;24.50;9.55;;;;;;;;;;4328220;33;20164;-72
2021/04/09 09:59:18;;;;;;;28.87;8.18;;;;;;;;;;4328650;33;20167;-72
2021/04/09 10:01:48;;;;;;;35.53;9.45;;;;;;;;;;4328992;33;20144;-71
2021/04/09 10:04:16;;;;;;;30.75;8.00;;;;;;;;;;4315895;33;20202;-73
2021/04/09 10:06:46;;;;;;;37.78;9.52;;;;;;;;;;4340703;33;20187;-74
2021/04/09 10:09:11;;;;;;;17.58;6.20;;;;;;;;;;4328264;33;20237;-72
2021/04/09 10:11:42;;;;;;;8.55;4.37;;;;;;;;;;4321826;33;20163;-69
2021/04/09 10:14:08;;;;;;;9.88;3.83;;;;;;;;;;4327455;33;20222;-73
2021/04/09 10:16:33;;;;;;;16.80;9.63;;;;;;;;;;4328721;33;20533;-70
2021/04/09 10:19:04;;;;;;;6.47;3.20;;;;;;;;;;4326698;33;20246;-69
2021/04/09 10:21:31;;;;;;;7.72;3.47;;;;;;;;;;4313048;33;20281;-71
2021/04/09 10:24:05;;;;;;;8.98;3.58;;;;;;;;;;4314140;33;20141;-69
2021/04/09 10:26:30;;;;;;;5.80;2.97;;;;;;;;;;4319563;33;20155;-71
2021/04/09 10:28:56;;;;;;;7.22;3.10;;;;;;;;;;4331700;33;20513;-73
2021/04/09 10:31:24;;;;;;;6.53;3.15;;;;;;;;;;4332349;33;20155;-73
2021/04/09 10:33:51;;;;;;;7.93;2.75;;;;;;;;;;4330739;33;20157;-74
2021/04/09 10:36:19;;;;;;;4.68;2.58;;;;;;;;;;4342696;33;20178;-72
2021/04/09 10:38:45;;;;;;;11.52;2.83;;;;;;;;;;4333007;33;20239;-71
2021/04/09 10:41:30;;;;;;;9.48;2.85;;;;;;;;;;4328287;33;20148;-72
2021/04/09 10:44:06;;;;;;;7.03;2.85;;;;;;;;;;4321950;33;20164;-72
2021/04/09 10:46:32;;;;;;;7.25;3.00;;;;;;;;;;4318206;33;20531;-73
2021/04/09 10:49:01;;;;;;;10.80;2.80;;;;;;;;;;4304308;33;20211;-72
2021/04/09 10:51:31;;;;;;;7.60;2.40;;;;;;;;;;4318395;33;20160;-73
2021/04/09 10:53:56;;;;;;;4.85;2.40;;;;;;;;;;4330946;33;20132;-71
2021/04/09 10:56:22;;;;;;;6.25;2.42;;;;;;;;;;4330567;33;20183;-70
2021/04/09 10:58:47;;;;;;;8.25;3.00;;;;;;;;;;4331613;33;20132;-71
2021/04/09 11:01:16;;;;;;;7.30;2.47;;;;;;;;;;4332037;33;20186;-72
2021/04/09 11:03:44;;;;;;;7.70;2.35;;;;;;;;;;4327694;33;20268;-75
2021/04/09 11:06:10;;;;;;;4.62;2.00;;;;;;;;;;4303379;33;20167;-72
2021/04/09 11:08:38;;;;;;;6.20;1.90;;;;;;;;;;4317394;33;20184;-71
2021/04/09 11:11:05;;;;;;;6.93;2.37;;;;;;;;;;4306167;33;20644;-72
2021/04/09 11:13:34;;;;;;;4.87;1.98;;;;;;;;;;4331252;33;20155;-72
2021/04/09 11:16:00;;;;;;;5.57;1.80;;;;;;;;;;4331542;33;20190;-71
2021/04/09 11:18:44;;;;;;;4.35;2.12;;;;;;;;;;4331132;33;20215;-70
2021/04/09 11:21:09;;;;;;;4.80;1.98;;;;;;;;;;4331217;33;20177;-72
2021/04/09 11:23:39;;;;;;;7.03;2.45;;;;;;;;;;4330180;33;20197;-67
2021/04/09 11:26:15;;;;;;;7.90;2.40;;;;;;;;;;4330997;33;20152;-72
2021/04/09 11:28:43;;;;;;;7.68;2.47;;;;;;;;;;4330104;33;20159;-71
2021/04/09 11:31:10;;;;;;;5.10;2.70;;;;;;;;;;4330894;33;20140;-72
2021/04/09 11:33:37;;;;;;;7.00;2.33;;;;;;;;;;4329826;33;20515;-73
2021/04/09 11:36:22;;;;;;;6.87;2.08;;;;;;;;;;4320053;33;20521;-71
2021/04/09 11:38:48;;;;;;;6.90;2.35;;;;;;;;;;4303214;33;20187;-73
2021/04/09 11:41:26;;;;;;;5.75;2.20;;;;;;;;;;4329901;33;20136;-68
2021/04/09 11:43:51;;;;;;;8.25;2.60;;;;;;;;;;4329520;33;20258;-72
2021/04/09 11:46:35;;;;;;;6.40;1.80;;;;;;;;;;4331153;33;20131;-71
2021/04/09 11:49:05;;;;;;;4.55;1.90;;;;;;;;;;4330303;33;20410;-72
2021/04/09 11:51:31;;;;;;;6.70;2.10;;;;;;;;;;4331565;33;20178;-70
2021/04/09 11:54:13;;;;;;;;;;;;;;;;;;;;;
2021/04/09 11:56:43;;;;;;;6.10;1.98;;;;;;;;;;4331680;33;20148;-71
2021/04/09 11:59:14;;;;;;;8.20;1.90;;;;;;;;;;4331747;33;20266;-71
2021/04/09 12:01:48;;;;;;;4.35;1.75;;;;;;;;;;4331472;33;20131;-71
2021/04/09 12:04:36;;;;;;;4.55;1.90;;;;;;;;;;4328640;33;20193;-72
2021/04/09 12:07:04;;;;;;;4.95;1.83;;;;;;;;;;4330911;33;20592;-71
2021/04/09 12:09:29;;;;;;;5.35;2.40;;;;;;;;;;4330693;33;20171;-70
2021/04/09 12:11:55;;;;;;;5.68;1.98;;;;;;;;;;4330161;33;20206;-72
2021/04/09 12:14:37;;;;;;;9.50;2.40;;;;;;;;;;4330143;33;20211;-73
2021/04/09 12:17:03;;;;;;;4.75;2.12;;;;;;;;;;4329075;33;20490;-73
2021/04/09 12:19:29;;;;;;;5.62;2.08;;;;;;;;;;4330741;33;20179;-70
2021/04/09 12:21:54;;;;;;;4.03;1.90;;;;;;;;;;4329659;33;20513;-68
2021/04/09 12:24:19;;;;;;;6.78;1.90;;;;;;;;;;4330214;33;20174;-72
2021/04/09 12:26:45;;;;;;;5.87;1.80;;;;;;;;;;4328432;33;20171;-69
2021/04/09 12:29:11;;;;;;;4.57;1.65;;;;;;;;;;4328854;33;20538;-74
2021/04/09 12:31:42;;;;;;;5.68;2.00;;;;;;;;;;4328885;33;20180;-72
2021/04/09 12:34:07;;;;;;;4.28;1.77;;;;;;;;;;4328898;33;20195;-70
2021/04/09 12:36:35;;;;;;;5.27;1.80;;;;;;;;;;4327728;33;20214;-71
2021/04/09 12:39:04;;;;;;;6.62;2.53;;;;;;;;;;4315710;33;20265;-70
2021/04/09 12:41:29;;;;;;;6.85;2.30;;;;;;;;;;4322703;33;20140;-70
2021/04/09 12:43:57;;;;;;;5.03;2.30;;;;;;;;;;4327033;33;20195;-70
2021/04/09 12:46:22;;;;;;;6.18;2.12;;;;;;;;;;4329119;33;20167;-72
2021/04/09 12:48:47;;;;;;;8.88;2.20;;;;;;;;;;4329317;33;20627;-70
2021/04/09 12:51:13;;;;;;;7.47;2.75;;;;;;;;;;4330046;33;20148;-71
2021/04/09 12:53:38;;;;;;;5.50;2.10;;;;;;;;;;4328854;33;20256;-72
2021/04/09 12:56:03;;;;;;;6.20;2.37;;;;;;;;;;4327450;33;20176;-68
2021/04/09 12:58:28;;;;;;;6.37;2.12;;;;;;;;;;4327693;33;20163;-69
2021/04/09 13:00:53;;;;;;;6.25;2.45;;;;;;;;;;4330480;33;20140;-71
2021/04/09 13:03:19;;;;;;;6.25;2.22;;;;;;;;;;4328855;33;20190;-71
2021/04/09 13:05:44;;;;;;;8.15;2.03;;;;;;;;;;4329756;33;20280;-69
2021/04/09 13:08:09;;;;;;;5.03;2.10;;;;;;;;;;4329324;33;20166;-71
2021/04/09 13:10:34;;;;;;;6.20;2.05;;;;;;;;;;4315755;33;20168;-71
2021/04/09 13:13:00;;;;;;;11.20;2.70;;;;;;;;;;4327869;33;20233;-72
2021/04/09 13:15:25;;;;;;;5.62;2.12;;;;;;;;;;4328205;33;20171;-68
2021/04/09 13:17:50;;;;;;;6.65;2.12;;;;;;;;;;4328063;33;20787;-72
2021/04/09 13:20:16;;;;;;;3.97;2.00;;;;;;;;;;4330057;33;20235;-72
2021/04/09 13:22:41;;;;;;;7.05;2.17;;;;;;;;;;4328282;33;20226;-72
2021/04/09 13:25:07;;;;;;;10.02;2.05;;;;;;;;;;4328383;33;20515;-73
2021/04/09 13:27:35;;;;;;;8.98;2.47;;;;;;;;;;4329632;33;20603;-70
2021/04/09 13:30:00;;;;;;;3.75;2.33;;;;;;;;;;4328444;33;20599;-71
2021/04/09 13:32:26;;;;;;;6.37;2.40;;;;;;;;;;4329182;33;20578;-71
2021/04/09 13:34:51;;;;;;;5.20;2.30;;;;;;;;;;4330024;33;20163;-72
2021/04/09 13:37:18;;;;;;;7.15;2.60;;;;;;;;;;4328462;33;20282;-71
2021/04/09 13:39:44;;;;;;;4.97;2.10;;;;;;;;;;4329549;33;20190;-73
2021/04/09 13:42:09;;;;;;;6.07;1.87;;;;;;;;;;4328028;33;20223;-72
2021/04/09 13:44:34;;;;;;;5.37;2.08;;;;;;;;;;4327808;33;20163;-72
2021/04/09 13:47:00;;;;;;;4.10;1.92;;;;;;;;;;4327088;33;20194;-72
2021/04/09 13:49:25;;;;;;;3.65;1.90;;;;;;;;;;4327413;33;20160;-74
2021/04/09 13:51:50;;;;;;;5.07;1.73;;;;;;;;;;4340013;33;20160;-73
2021/04/09 13:54:15;;;;;;;6.47;2.30;;;;;;;;;;4328248;33;20188;-74
2021/04/09 13:56:40;;;;;;;3.92;2.05;;;;;;;;;;4328730;33;20221;-71
2021/04/09 13:59:06;;;;;;;5.10;2.20;;;;;;;;;;4330891;33;20173;-72
2021/04/09 14:01:31;;;;;;;5.62;2.05;;;;;;;;;;4331983;33;20195;-72
2021/04/09 14:03:56;;;;;;;5.05;2.12;;;;;;;;;;4331898;33;20307;-73
2021/04/09 14:06:22;;;;;;;3.87;1.90;;;;;;;;;;4333136;33;20186;-73
2021/04/09 14:08:47;;;;;;;5.40;1.40;;;;;;;;;;4334921;33;20152;-74
2021/04/09 14:11:12;;;;;;;3.55;1.80;;;;;;;;;;4334722;33;20194;-70
2021/04/09 14:13:37;;;;;;;3.90;1.92;;;;;;;;;;4333987;33;20159;-73
2021/04/09 14:16:06;;;;;;;6.82;1.92;;;;;;;;;;4333440;33;20541;-72
2021/04/09 14:18:31;;;;;;;5.62;2.00;;;;;;;;;;4331525;33;20190;-74
2021/04/09 14:21:13;;;;;;;4.93;1.85;;;;;;;;;;4332652;33;20498;-72
2021/04/09 14:23:38;;;;;;;4.45;1.80;;;;;;;;;;4332635;33;20175;-71
2021/04/09 14:26:03;;;;;;;4.03;1.55;;;;;;;;;;4331137;33;20168;-73
2021/04/09 14:28:29;;;;;;;5.40;1.80;;;;;;;;;;4331280;33;20190;-74
2021/04/09 14:31:00;;;;;;;6.05;2.05;;;;;;;;;;4330078;33;20633;-73
2021/04/09 14:33:25;;;;;;;4.00;1.58;;;;;;;;;;4318009;33;20155;-72
2021/04/09 14:35:52;;;;;;;3.37;1.35;;;;;;;;;;4317804;33;20196;-72
2021/04/09 14:38:18;;;;;;;5.28;1.30;;;;;;;;;;4317941;33;20495;-73
2021/04/09 14:40:43;;;;;;;2.22;1.10;;;;;;;;;;4317968;33;20195;-73
2021/04/09 14:43:08;;;;;;;2.95;1.60;;;;;;;;;;4316197;33;20194;-72
2021/04/09 14:45:36;;;;;;;2.75;1.20;;;;;;;;;;4324002;33;20144;-72
2021/04/09 14:48:01;;;;;;;3.85;1.60;;;;;;;;;;4332322;33;20201;-71
2021/04/09 14:50:26;;;;;;;5.32;1.58;;;;;;;;;;4332173;33;20148;-73
2021/04/09 14:52:53;;;;;;;1.42;0.98;;;;;;;;;;4332493;33;20140;-72
2021/04/09 14:55:18;;;;;;;3.58;1.35;;;;;;;;;;4330432;33;20241;-70
2021/04/09 14:57:44;;;;;;;3.53;1.40;;;;;;;;;;4331531;33;20159;-72
2021/04/09 15:00:10;;;;;;;3.28;1.50;;;;;;;;;;4331704;33;20175;-71
2021/04/09 15:02:36;;;;;;;1.45;1.30;;;;;;;;;;4331916;33;20531;-73
2021/04/09 15:05:02;;;;;;;2.62;1.40;;;;;;;;;;4332032;33;20163;-73
2021/04/09 15:07:27;;;;;;;3.35;1.40;;;;;;;;;;4331061;33;20139;-73
2021/04/09 15:09:52;;;;;;;3.15;1.30;;;;;;;;;;4330262;33;20203;-74
2021/04/09 15:12:18;;;;;;;1.62;0.95;;;;;;;;;;4317252;33;20190;-74
2021/04/09 15:14:43;;;;;;;3.15;1.40;;;;;;;;;;4331907;33;20442;-76
2021/04/09 15:17:09;;;;;;;3.83;1.20;;;;;;;;;;4331265;33;20174;-73
2021/04/09 15:19:35;;;;;;;4.47;1.00;;;;;;;;;;4330553;33;20219;-71
2021/04/09 15:22:00;;;;;;;3.53;1.27;;;;;;;;;;4328681;33;20167;-72
2021/04/09 15:24:26;;;;;;;3.60;1.43;;;;;;;;;;4328079;33;20561;-72
2021/04/09 15:26:51;;;;;;;2.75;1.30;;;;;;;;;;4330568;33;20310;-71
2021/04/09 15:29:16;;;;;;;2.70;1.20;;;;;;;;;;4329006;33;20659;-75
2021/04/09 15:31:44;;;;;;;3.20;1.23;;;;;;;;;;4329549;33;20198;-74
2021/04/09 15:34:09;;;;;;;2.08;1.00;;;;;;;;;;4328569;33;20179;-76
2021/04/09 15:36:34;;;;;;;2.12;1.05;;;;;;;;;;4329454;33;20144;-74
2021/04/09 15:39:00;;;;;;;3.62;1.12;;;;;;;;;;4328513;33;20164;-74
2021/04/09 15:41:28;;;;;;;2.78;0.77;;;;;;;;;;4329033;33;20167;-75
2021/04/09 15:43:54;;;;;;;4.85;0.98;;;;;;;;;;4329856;33;20160;-70
2021/04/09 15:46:20;;;;;;;2.58;0.80;;;;;;;;;;4330165;33;20194;-69
2021/04/09 15:48:45;;;;;;;3.42;0.70;;;;;;;;;;4329263;33;20165;-72
2021/04/09 15:51:10;;;;;;;2.20;0.85;;;;;;;;;;4330637;33;20176;-72
2021/04/09 15:53:38;;;;;;;4.05;1.10;;;;;;;;;;4330495;33;20174;-73
2021/04/09 15:56:03;;;;;;;1.87;0.68;;;;;;;;;;4330885;33;20156;-72
2021/04/09 15:58:28;;;;;;;2.53;1.08;;;;;;;;;;4329533;33;20223;-72
2021/04/09 16:00:54;;;;;;;1.80;0.90;;;;;;;;;;4318798;33;20206;-72
2021/04/09 16:03:19;;;;;;;3.15;1.00;;;;;;;;;;4309984;33;20296;-73
2021/04/09 16:05:45;;;;;;;1.25;1.02;;;;;;;;;;4331339;33;20469;-74
2021/04/09 16:08:10;;;;;;;1.77;1.00;;;;;;;;;;4331810;33;20201;-72
2021/04/09 16:10:35;;;;;;;4.60;1.23;;;;;;;;;;4331694;33;20136;-73
2021/04/09 16:13:01;;;;;;;4.97;1.10;;;;;;;;;;4329698;33;20215;-72
2021/04/09 16:15:26;;;;;;;1.30;1.20;;;;;;;;;;4329179;33;20260;-73
2021/04/09 16:17:51;;;;;;;6.40;1.85;;;;;;;;;;4330060;33;20275;-71
2021/04/09 16:20:17;;;;;;;5.40;1.73;;;;;;;;;;4330895;33;20180;-73
2021/04/09 16:22:43;;;;;;;2.85;1.25;;;;;;;;;;4329333;33;20172;-71
2021/04/09 16:25:15;;;;;;;4.78;1.17;;;;;;;;;;4330895;33;20186;-74
2021/04/09 16:27:42;;;;;;;3.40;1.10;;;;;;;;;;4331250;33;20159;-73
2021/04/09 16:30:11;;;;;;;2.37;1.52;;;;;;;;;;4329671;33;20168;-74
2021/04/09 16:32:37;;;;;;;2.08;1.10;;;;;;;;;;4329741;33;20160;-73
2021/04/09 16:35:04;;;;;;;2.20;1.23;;;;;;;;;;4329415;33;20218;-73
2021/04/09 16:37:29;;;;;;;3.10;1.20;;;;;;;;;;4329997;33;20156;-74
2021/04/09 16:39:55;;;;;;;3.42;1.15;;;;;;;;;;4317535;33;20194;-74
2021/04/09 16:42:20;;;;;;;1.87;1.00;;;;;;;;;;4330940;33;20574;-74
2021/04/09 16:44:45;;;;;;;4.53;1.05;;;;;;;;;;4330847;33;20174;-72